nws-alerts: Checking more than four warning/county codes can delay the loading of your pages. You should use a cron job to get the data.
EllijayWeather Station Historical Data
Daily Summary for December 25, 2018 Units:  English    Metric   Both
Daily Weekly Monthly Yearly Custom
  High: Low: Average:
Temperature: 50.5 °F 26.8 °F 38.1 °F
Dew Point: 40.1 °F 25 °F 33.1 °F
Humidity: 96% 55% 83%
Wind Speed: 0.9mph 0mph 0mph
Wind Gust: 4mph - -
Wind- - SE
Pressure: 30.42 in 30.31 in -
Precipitation: 0 in    
Historical Graphs
 
 
Tabular Data for December 25, 2018
Time Temperature Dew Point Pressure Wind Wind Speed Wind Gust Humidity Rainfall Rate (Hourly) solar
00:04 27.9 °F 26.4 °F 30.32 in Calm     94% 0 in meteobridge W/m2
00:09 27.7 °F 26.2 °F 30.31 in Calm     94% 0 in meteobridge W/m2
00:14 27.7 °F 26.2 °F 30.31 in Calm     94% 0 in meteobridge W/m2
00:19 27.7 °F 26.2 °F 30.32 in Calm     94% 0 in meteobridge W/m2
00:24 27.9 °F 26.4 °F 30.31 in Calm     94% 0 in meteobridge W/m2
00:29 27.9 °F 26.4 °F 30.31 in Calm     94% 0 in meteobridge W/m2
00:34 27.9 °F 26.4 °F 30.31 in Calm     94% 0 in meteobridge W/m2
00:39 27.9 °F 26.4 °F 30.31 in Calm     94% 0 in meteobridge W/m2
00:44 27.9 °F 26.4 °F 30.31 in Calm     94% 0 in meteobridge W/m2
00:49 27.9 °F 26.1 °F 30.32 in Calm     93% 0 in meteobridge W/m2
00:54 27.9 °F 26.1 °F 30.32 in Calm     93% 0 in meteobridge W/m2
00:59 27.9 °F 26.1 °F 30.32 in Calm     93% 0 in meteobridge W/m2
01:04 27.7 °F 25.9 °F 30.32 in Calm     93% 0 in meteobridge W/m2
01:09 27.7 °F 25.9 °F 30.32 in Calm     93% 0 in meteobridge W/m2
01:14 27.3 °F 25.5 °F 30.32 in Calm     93% 0 in meteobridge W/m2
01:19 27.3 °F 25.5 °F 30.32 in Calm     93% 0 in meteobridge W/m2
01:24 27.1 °F 25.3 °F 30.33 in Calm     93% 0 in meteobridge W/m2
01:29 27.1 °F 25.3 °F 30.33 in Calm     93% 0 in meteobridge W/m2
01:34 27.1 °F 25.3 °F 30.33 in Calm     93% 0 in meteobridge W/m2
01:39 27 °F 25.2 °F 30.33 in Calm     93% 0 in meteobridge W/m2
01:44 27 °F 25.5 °F 30.33 in Calm     94% 0 in meteobridge W/m2
01:49 27 °F 25.5 °F 30.33 in Calm     94% 0 in meteobridge W/m2
01:53 27 °F 25.5 °F 30.33 in Calm     94% 0 in meteobridge W/m2
01:59 26.8 °F 25.3 °F 30.32 in Calm     94% 0 in meteobridge W/m2
02:04 26.8 °F 25 °F 30.32 in Calm     93% 0 in meteobridge W/m2
02:08 26.8 °F 25.3 °F 30.32 in Calm     94% 0 in meteobridge W/m2
02:14 26.8 °F 25.3 °F 30.32 in Calm     94% 0 in meteobridge W/m2
02:19 26.8 °F 25.3 °F 30.32 in Calm     94% 0 in meteobridge W/m2
02:24 27 °F 25.7 °F 30.32 in Calm     95% 0 in meteobridge W/m2
02:29 27.3 °F 26.1 °F 30.33 in Calm     95% 0 in meteobridge W/m2
02:34 27.7 °F 26.4 °F 30.34 in Calm     95% 0 in meteobridge W/m2
02:39 27.7 °F 26.4 °F 30.34 in Calm     95% 0 in meteobridge W/m2
02:44 27.9 °F 26.6 °F 30.34 in Calm     95% 0 in meteobridge W/m2
02:49 27.9 °F 26.6 °F 30.34 in Calm     95% 0 in meteobridge W/m2
02:54 28 °F 26.8 °F 30.33 in Calm     95% 0 in meteobridge W/m2
02:59 28 °F 26.8 °F 30.34 in Calm     95% 0 in meteobridge W/m2
03:04 28.2 °F 27 °F 30.34 in Calm     95% 0 in meteobridge W/m2
03:09 28.2 °F 26.8 °F 30.34 in Calm     94% 0 in meteobridge W/m2
03:14 28.2 °F 26.8 °F 30.34 in Calm     94% 0 in meteobridge W/m2
03:19 28.2 °F 26.8 °F 30.34 in Calm     94% 0 in meteobridge W/m2
03:24 28.4 °F 27 °F 30.34 in Calm     94% 0 in meteobridge W/m2
03:29 28.4 °F 27 °F 30.34 in Calm     94% 0 in meteobridge W/m2
03:34 28.4 °F 27 °F 30.34 in Calm     94% 0 in meteobridge W/m2
03:39 28.6 °F 27.1 °F 30.34 in Calm     94% 0 in meteobridge W/m2
03:44 28.6 °F 27.1 °F 30.34 in Calm     94% 0 in meteobridge W/m2
03:49 28.6 °F 27.1 °F 30.34 in Calm     94% 0 in meteobridge W/m2
03:54 28.6 °F 27.1 °F 30.35 in Calm     94% 0 in meteobridge W/m2
03:59 28.6 °F 27.1 °F 30.34 in Calm     94% 0 in meteobridge W/m2
04:04 28.6 °F 27.1 °F 30.34 in Calm     94% 0 in meteobridge W/m2
04:09 28.4 °F 27 °F 30.35 in Calm     94% 0 in meteobridge W/m2
04:14 28.6 °F 27.1 °F 30.35 in Calm     94% 0 in meteobridge W/m2
04:19 28.4 °F 27 °F 30.35 in Calm     94% 0 in meteobridge W/m2
04:24 28.4 °F 27 °F 30.35 in Calm     94% 0 in meteobridge W/m2
04:29 28.4 °F 27 °F 30.35 in Calm     94% 0 in meteobridge W/m2
04:34 28.2 °F 26.8 °F 30.34 in Calm     94% 0 in meteobridge W/m2
04:39 28.2 °F 26.8 °F 30.34 in Calm     94% 0 in meteobridge W/m2
04:44 28.2 °F 26.8 °F 30.34 in Calm     94% 0 in meteobridge W/m2
04:49 28.2 °F 26.8 °F 30.34 in Calm     94% 0 in meteobridge W/m2
04:54 28.2 °F 26.8 °F 30.34 in Calm     94% 0 in meteobridge W/m2
04:59 28.2 °F 26.8 °F 30.34 in Calm     94% 0 in meteobridge W/m2
05:04 28.2 °F 26.8 °F 30.34 in Calm     94% 0 in meteobridge W/m2
05:09 28.2 °F 26.8 °F 30.34 in Calm     94% 0 in meteobridge W/m2
05:14 28.4 °F 27 °F 30.34 in Calm     94% 0 in meteobridge W/m2
05:19 28.4 °F 27 °F 30.34 in Calm     94% 0 in meteobridge W/m2
05:24 28.4 °F 27 °F 30.34 in Calm     94% 0 in meteobridge W/m2
05:29 28.2 °F 26.8 °F 30.34 in Calm     94% 0 in meteobridge W/m2
05:34 28.2 °F 26.8 °F 30.34 in Calm     94% 0 in meteobridge W/m2
05:39 28.2 °F 26.8 °F 30.34 in Calm     94% 0 in meteobridge W/m2
05:44 28.2 °F 26.8 °F 30.34 in Calm     94% 0 in meteobridge W/m2
05:49 28.4 °F 27.1 °F 30.34 in Calm     95% 0 in meteobridge W/m2
05:54 28.4 °F 27.1 °F 30.34 in Calm     95% 0 in meteobridge W/m2
05:59 28.4 °F 27 °F 30.34 in Calm     94% 0 in meteobridge W/m2
06:04 28.4 °F 27.1 °F 30.34 in Calm     95% 0 in meteobridge W/m2
06:09 28.6 °F 27.1 °F 30.34 in Calm     94% 0 in meteobridge W/m2
06:14 28.6 °F 27.1 °F 30.34 in Calm     94% 0 in meteobridge W/m2
06:19 28.6 °F 27.3 °F 30.34 in Calm     95% 0 in meteobridge W/m2
06:24 28.8 °F 27.5 °F 30.34 in Calm     95% 0 in meteobridge W/m2
06:29 28.8 °F 27.5 °F 30.34 in Calm     95% 0 in meteobridge W/m2
06:34 28.8 °F 27.3 °F 30.34 in Calm     94% 0 in meteobridge W/m2
06:38 28.8 °F 27.3 °F 30.34 in Calm     94% 0 in meteobridge W/m2
06:44 28.9 °F 27.5 °F 30.35 in Calm     94% 0 in meteobridge W/m2
06:49 28.9 °F 27.5 °F 30.35 in Calm     94% 0 in meteobridge W/m2
06:54 28.9 °F 27.5 °F 30.35 in Calm     94% 0 in meteobridge W/m2
06:59 28.9 °F 27.5 °F 30.35 in Calm     94% 0 in meteobridge W/m2
07:04 28.9 °F 27.5 °F 30.35 in Calm     94% 0 in meteobridge W/m2
07:09 28.9 °F 27.5 °F 30.35 in Calm     94% 0 in meteobridge W/m2
07:14 28.9 °F 27.7 °F 30.35 in Calm     95% 0 in meteobridge W/m2
07:19 29.1 °F 27.9 °F 30.35 in Calm     95% 0 in meteobridge W/m2
07:24 29.1 °F 27.7 °F 30.36 in Calm     94% 0 in meteobridge W/m2
07:29 29.1 °F 27.7 °F 30.36 in Calm     94% 0 in meteobridge W/m2
07:34 29.1 °F 27.9 °F 30.37 in Calm     95% 0 in meteobridge W/m2
07:39 29.1 °F 27.9 °F 30.37 in Calm     95% 0 in meteobridge W/m2
07:44 29.1 °F 27.9 °F 30.37 in Calm     95% 0 in meteobridge W/m2
07:48 29.1 °F 27.9 °F 30.37 in Calm     95% 0 in meteobridge W/m2
07:54 29.1 °F 27.9 °F 30.37 in Calm     95% 0 in meteobridge W/m2
07:59 29.1 °F 27.7 °F 30.37 in Calm     94% 0 in meteobridge W/m2
08:04 29.1 °F 27.9 °F 30.38 in Calm     95% 0 in meteobridge W/m2
08:08 29.1 °F 27.9 °F 30.38 in Calm     95% 0 in meteobridge W/m2
08:14 29.1 °F 27.9 °F 30.38 in Calm     95% 0 in meteobridge W/m2
08:19 29.3 °F 28 °F 30.38 in Calm     95% 0 in meteobridge W/m2
08:24 29.5 °F 28.2 °F 30.38 in Calm     95% 0 in meteobridge W/m2
08:29 29.5 °F 28.2 °F 30.39 in Calm     95% 0 in meteobridge W/m2
08:34 29.7 °F 28.4 °F 30.38 in Calm     95% 0 in meteobridge W/m2
08:39 29.7 °F 28.4 °F 30.39 in Calm     95% 0 in meteobridge W/m2
08:44 29.8 °F 28.8 °F 30.39 in Calm     96% 0 in meteobridge W/m2
08:49 30 °F 28.8 °F 30.39 in Calm     95% 0 in meteobridge W/m2
08:54 30.4 °F 29.1 °F 30.39 in Calm     95% 0 in meteobridge W/m2
08:59 30.6 °F 29.3 °F 30.39 in Calm     95% 0 in meteobridge W/m2
09:04 30.7 °F 29.5 °F 30.38 in Calm     95% 0 in meteobridge W/m2
09:09 31.1 °F 29.8 °F 30.39 in Calm     95% 0 in meteobridge W/m2
09:14 31.5 °F 30.4 °F 30.39 in Calm     96% 0 in meteobridge W/m2
09:19 31.8 °F 30.7 °F 30.39 in Calm     96% 0 in meteobridge W/m2
09:24 32.5 °F 31.5 °F 30.39 in Calm     96% 0 in meteobridge W/m2
09:29 33.4 °F 32.2 °F 30.39 in Calm     95% 0 in meteobridge W/m2
09:34 34.3 °F 32.7 °F 30.39 in Calm     94% 0 in meteobridge W/m2
09:39 35.1 °F 33.4 °F 30.39 in Calm     94% 0 in meteobridge W/m2
09:44 36 °F 34.2 °F 30.39 in Calm     93% 0 in meteobridge W/m2
09:49 36.7 °F 34.9 °F 30.40 in Calm     93% 0 in meteobridge W/m2
09:54 37.2 °F 35.1 °F 30.40 in Calm     92% 0 in meteobridge W/m2
09:59 37.8 °F 35.6 °F 30.40 in Calm     92% 0 in meteobridge W/m2
10:04 38.1 °F 36 °F 30.40 in Calm     92% 0 in meteobridge W/m2
10:09 38.7 °F 36.5 °F 30.41 in Calm     92% 0 in meteobridge W/m2
10:14 39.2 °F 37 °F 30.42 in Calm     92% 0 in meteobridge W/m2
10:19 40.3 °F 37.2 °F 30.42 in Calm     89% 0 in meteobridge W/m2
10:24 40.8 °F 38.1 °F 30.42 in Calm     90% 0 in meteobridge W/m2
10:29 41.5 °F 37.4 °F 30.42 in Calm   2 mph 85% 0 in meteobridge W/m2
10:34 42.3 °F 37.2 °F 30.42 in Calm   1 mph 82% 0 in meteobridge W/m2
10:39 43.3 °F 38.3 °F 30.42 in Calm     82% 0 in meteobridge W/m2
10:44 44.4 °F 38.7 °F 30.42 in Calm     80% 0 in meteobridge W/m2
10:49 45.3 °F 38.5 °F 30.42 in Calm     77% 0 in meteobridge W/m2
10:54 45.7 °F 38.8 °F 30.42 in Calm     77% 0 in meteobridge W/m2
10:59 46 °F 39.2 °F 30.42 in Calm   2 mph 77% 0 in meteobridge W/m2
11:04 46.6 °F 38.1 °F 30.42 in Calm     72% 0 in meteobridge W/m2
11:09 46.9 °F 38.3 °F 30.42 in Calm   2 mph 72% 0 in meteobridge W/m2
11:14 47.7 °F 38.7 °F 30.42 in Calm   3 mph 71% 0 in meteobridge W/m2
11:19 48 °F 39.7 °F 30.42 in Calm   1 mph 73% 0 in meteobridge W/m2
11:24 48 °F 38.7 °F 30.42 in Calm     70% 0 in meteobridge W/m2
11:29 48 °F 38.7 °F 30.42 in Calm     70% 0 in meteobridge W/m2
11:34 48 °F 38.7 °F 30.42 in Calm     70% 0 in meteobridge W/m2
11:39 48 °F 37.9 °F 30.42 in Calm   4 mph 68% 0 in meteobridge W/m2
11:44 48 °F 38.7 °F 30.42 in Calm   1 mph 70% 0 in meteobridge W/m2
11:49 47.8 °F 37.8 °F 30.42 in Calm     68% 0 in meteobridge W/m2
11:54 47.7 °F 38.3 °F 30.41 in Calm   1 mph 70% 0 in meteobridge W/m2
11:59 47.7 °F 38.3 °F 30.40 in Calm     70% 0 in meteobridge W/m2
12:04 47.7 °F 37.9 °F 30.40 in Calm     69% 0 in meteobridge W/m2
12:09 47.7 °F 38.3 °F 30.40 in Calm     70% 0 in meteobridge W/m2
12:14 47.7 °F 37.6 °F 30.40 in Calm     68% 0 in meteobridge W/m2
12:19 47.8 °F 37.8 °F 30.40 in Calm     68% 0 in meteobridge W/m2
12:24 47.8 °F 37.8 °F 30.40 in Calm   1 mph 68% 0 in meteobridge W/m2
12:29 47.8 °F 38.5 °F 30.39 in Calm     70% 0 in meteobridge W/m2
12:34 47.8 °F 37.8 °F 30.38 in Calm     68% 0 in meteobridge W/m2
12:39 47.8 °F 37.8 °F 30.38 in Calm   2 mph 68% 0 in meteobridge W/m2
12:44 47.8 °F 37.4 °F 30.38 in Calm   1 mph 67% 0 in meteobridge W/m2
12:49 48 °F 37.2 °F 30.38 in Calm     66% 0 in meteobridge W/m2
12:53 48 °F 37.2 °F 30.37 in Calm     66% 0 in meteobridge W/m2
12:59 48 °F 37.9 °F 30.38 in Calm     68% 0 in meteobridge W/m2
13:04 47.8 °F 37.8 °F 30.38 in Calm   1 mph 68% 0 in meteobridge W/m2
13:09 48 °F 38.7 °F 30.37 in Calm     70% 0 in meteobridge W/m2
13:14 47.8 °F 37 °F 30.37 in Calm     66% 0 in meteobridge W/m2
13:19 47.7 °F 37.6 °F 30.37 in Calm     68% 0 in meteobridge W/m2
13:24 47.7 °F 37.6 °F 30.36 in Calm     68% 0 in meteobridge W/m2
13:29 47.7 °F 37.2 °F 30.36 in Calm     67% 0 in meteobridge W/m2
13:34 47.7 °F 37.9 °F 30.35 in Calm   1 mph 69% 0 in meteobridge W/m2
13:39 47.7 °F 37.2 °F 30.35 in Calm     67% 0 in meteobridge W/m2
13:44 47.8 °F 37 °F 30.35 in Calm     66% 0 in meteobridge W/m2
13:49 48.4 °F 37.9 °F 30.35 in SE 0.9 mph 1 mph 67% 0 in meteobridge W/m2
13:54 48.7 °F 37 °F 30.35 in Calm     64% 0 in meteobridge W/m2
13:59 48.9 °F 36.9 °F 30.35 in Calm     63% 0 in meteobridge W/m2
14:04 48.7 °F 36.7 °F 30.35 in Calm     63% 0 in meteobridge W/m2
14:09 48.7 °F 37.6 °F 30.35 in Calm     65% 0 in meteobridge W/m2
14:14 48.7 °F 35.1 °F 30.35 in Calm     59% 0 in meteobridge W/m2
14:19 48.9 °F 35.2 °F 30.35 in SE 0.9 mph 2 mph 59% 0 in meteobridge W/m2
14:24 49.3 °F 34.2 °F 30.36 in Calm     56% 0 in meteobridge W/m2
14:29 49.6 °F 34.5 °F 30.35 in Calm   4 mph 56% 0 in meteobridge W/m2
14:34 49.6 °F 35.1 °F 30.35 in Calm     57% 0 in meteobridge W/m2
14:39 49.6 °F 35.1 °F 30.35 in Calm     57% 0 in meteobridge W/m2
14:44 49.8 °F 35.2 °F 30.35 in Calm     57% 0 in meteobridge W/m2
14:49 50.2 °F 36.3 °F 30.36 in Calm     59% 0 in meteobridge W/m2
14:54 50.2 °F 35.1 °F 30.36 in Calm   2 mph 56% 0 in meteobridge W/m2
14:59 50.4 °F 35.2 °F 30.36 in Calm     56% 0 in meteobridge W/m2
15:04 50.5 °F 36 °F 30.36 in Calm     57% 0 in meteobridge W/m2
15:09 50.5 °F 35.4 °F 30.35 in Calm     56% 0 in meteobridge W/m2
15:14 50.5 °F 35.4 °F 30.35 in Calm     56% 0 in meteobridge W/m2
15:19 50.4 °F 35.2 °F 30.35 in Calm     56% 0 in meteobridge W/m2
15:24 50.4 °F 34.9 °F 30.35 in Calm     55% 0 in meteobridge W/m2
15:29 50.2 °F 35.1 °F 30.36 in Calm     56% 0 in meteobridge W/m2
15:34 50.2 °F 35.1 °F 30.36 in Calm     56% 0 in meteobridge W/m2
15:39 49.8 °F 35.6 °F 30.36 in Calm     58% 0 in meteobridge W/m2
15:44 49.6 °F 35.1 °F 30.36 in Calm     57% 0 in meteobridge W/m2
15:49 49.6 °F 35.4 °F 30.36 in Calm     58% 0 in meteobridge W/m2
15:54 49.3 °F 36.3 °F 30.36 in Calm     61% 0 in meteobridge W/m2
15:59 49.1 °F 36.7 °F 30.37 in Calm     62% 0 in meteobridge W/m2
16:04 48.7 °F 36.3 °F 30.37 in Calm     62% 0 in meteobridge W/m2
16:09 48.6 °F 36.5 °F 30.36 in Calm     63% 0 in meteobridge W/m2
16:14 48.6 °F 36.5 °F 30.37 in Calm     63% 0 in meteobridge W/m2
16:19 48.6 °F 36.5 °F 30.36 in Calm     63% 0 in meteobridge W/m2
16:24 48.6 °F 37.4 °F 30.36 in Calm     65% 0 in meteobridge W/m2
16:29 48.7 °F 36.7 °F 30.36 in Calm     63% 0 in meteobridge W/m2
16:34 48.7 °F 37.6 °F 30.36 in Calm     65% 0 in meteobridge W/m2
16:39 48.9 °F 38.1 °F 30.36 in Calm     66% 0 in meteobridge W/m2
16:44 48.9 °F 37.2 °F 30.36 in Calm     64% 0 in meteobridge W/m2
16:49 48.9 °F 37.8 °F 30.36 in Calm     65% 0 in meteobridge W/m2
16:54 48.9 °F 38.8 °F 30.36 in Calm     68% 0 in meteobridge W/m2
16:59 48.7 °F 38.3 °F 30.36 in Calm     67% 0 in meteobridge W/m2
17:04 48.7 °F 38.3 °F 30.37 in Calm     67% 0 in meteobridge W/m2
17:09 48.6 °F 38.5 °F 30.37 in Calm     68% 0 in meteobridge W/m2
17:14 48.4 °F 38.3 °F 30.37 in Calm     68% 0 in meteobridge W/m2
17:19 48.2 °F 38.5 °F 30.37 in Calm     69% 0 in meteobridge W/m2
17:24 48 °F 38.3 °F 30.37 in Calm     69% 0 in meteobridge W/m2
17:29 47.8 °F 38.5 °F 30.37 in Calm     70% 0 in meteobridge W/m2
17:34 47.7 °F 38.3 °F 30.37 in Calm     70% 0 in meteobridge W/m2
17:39 47.5 °F 38.5 °F 30.37 in Calm     71% 0 in meteobridge W/m2
17:44 47.3 °F 39 °F 30.38 in Calm     73% 0 in meteobridge W/m2
17:49 47.1 °F 39.2 °F 30.38 in Calm     74% 0 in meteobridge W/m2
17:54 46.9 °F 38.7 °F 30.38 in Calm     73% 0 in meteobridge W/m2
17:59 46.9 °F 39.4 °F 30.39 in Calm     75% 0 in meteobridge W/m2
18:04 46.8 °F 38.8 °F 30.39 in Calm     74% 0 in meteobridge W/m2
18:09 46.8 °F 39.6 °F 30.39 in Calm     76% 0 in meteobridge W/m2
18:14 46.6 °F 39.4 °F 30.38 in Calm     76% 0 in meteobridge W/m2
18:19 46.4 °F 39.6 °F 30.38 in Calm     77% 0 in meteobridge W/m2
18:24 46 °F 39.6 °F 30.38 in Calm     78% 0 in meteobridge W/m2
18:28 46 °F 39.6 °F 30.38 in Calm     78% 0 in meteobridge W/m2
18:34 45.9 °F 39.7 °F 30.37 in Calm     79% 0 in meteobridge W/m2
18:39 45.9 °F 40.1 °F 30.37 in Calm     80% 0 in meteobridge W/m2
18:44 45.7 °F 39.9 °F 30.38 in Calm     80% 0 in meteobridge W/m2
18:49 45.5 °F 39.7 °F 30.38 in Calm     80% 0 in meteobridge W/m2
18:54 45.3 °F 39.6 °F 30.38 in Calm     80% 0 in meteobridge W/m2
18:59 45.3 °F 39.6 °F 30.38 in Calm     80% 0 in meteobridge W/m2
19:04 45.1 °F 39.7 °F 30.37 in Calm     81% 0 in meteobridge W/m2
19:09 45.1 °F 39.4 °F 30.38 in Calm     80% 0 in meteobridge W/m2
19:14 45 °F 39.6 °F 30.38 in Calm     81% 0 in meteobridge W/m2
19:19 44.8 °F 39 °F 30.38 in Calm     80% 0 in meteobridge W/m2
19:24 44.8 °F 39 °F 30.39 in Calm     80% 0 in meteobridge W/m2
19:29 44.4 °F 39.2 °F 30.39 in Calm     82% 0 in meteobridge W/m2
19:34 44.4 °F 39.2 °F 30.39 in Calm     82% 0 in meteobridge W/m2
19:39 44.2 °F 39 °F 30.39 in Calm     82% 0 in meteobridge W/m2
19:44 44.2 °F 38.8 °F 30.39 in Calm     81% 0 in meteobridge W/m2
19:49 44.1 °F 38.8 °F 30.39 in Calm     82% 0 in meteobridge W/m2
19:54 43.9 °F 38.5 °F 30.39 in Calm     81% 0 in meteobridge W/m2
19:59 43.5 °F 38.5 °F 30.40 in Calm     82% 0 in meteobridge W/m2
20:04 43.3 °F 38.5 °F 30.40 in Calm     83% 0 in meteobridge W/m2
20:09 43.2 °F 38.3 °F 30.39 in Calm     83% 0 in meteobridge W/m2
20:14 43 °F 38.1 °F 30.40 in Calm     83% 0 in meteobridge W/m2
20:19 42.6 °F 37.8 °F 30.40 in Calm     83% 0 in meteobridge W/m2
20:24 42.4 °F 37.9 °F 30.40 in Calm     84% 0 in meteobridge W/m2
20:29 42.3 °F 37.8 °F 30.40 in Calm     84% 0 in meteobridge W/m2
20:34 41.9 °F 37.4 °F 30.40 in Calm     84% 0 in meteobridge W/m2
20:39 41.7 °F 37.6 °F 30.40 in Calm     85% 0 in meteobridge W/m2
20:44 41.4 °F 37.2 °F 30.40 in Calm     85% 0 in meteobridge W/m2
20:49 41.4 °F 37.2 °F 30.40 in Calm     85% 0 in meteobridge W/m2
20:54 40.8 °F 37 °F 30.41 in Calm     86% 0 in meteobridge W/m2
20:59 40.6 °F 37 °F 30.41 in Calm     87% 0 in meteobridge W/m2
21:04 40.3 °F 36.7 °F 30.41 in Calm     87% 0 in meteobridge W/m2
21:09 39.9 °F 36.7 °F 30.41 in Calm     88% 0 in meteobridge W/m2
21:14 39.7 °F 36.5 °F 30.41 in Calm     88% 0 in meteobridge W/m2
21:19 39.4 °F 36.5 °F 30.41 in Calm     89% 0 in meteobridge W/m2
21:24 39.2 °F 36.3 °F 30.41 in Calm     89% 0 in meteobridge W/m2
21:29 39 °F 36.1 °F 30.41 in Calm     89% 0 in meteobridge W/m2
21:34 38.7 °F 36 °F 30.41 in Calm     90% 0 in meteobridge W/m2
21:39 38.7 °F 36 °F 30.42 in Calm     90% 0 in meteobridge W/m2
21:44 38.5 °F 35.8 °F 30.41 in Calm     90% 0 in meteobridge W/m2
21:49 38.3 °F 35.6 °F 30.42 in Calm     90% 0 in meteobridge W/m2
21:54 38.1 °F 35.8 °F 30.42 in Calm     91% 0 in meteobridge W/m2
21:59 37.9 °F 35.6 °F 30.41 in Calm     91% 0 in meteobridge W/m2
22:04 37.8 °F 35.4 °F 30.42 in Calm     91% 0 in meteobridge W/m2
22:09 37.6 °F 35.2 °F 30.42 in Calm     91% 0 in meteobridge W/m2
22:14 37.2 °F 34.9 °F 30.41 in Calm     91% 0 in meteobridge W/m2
22:19 37.2 °F 35.1 °F 30.42 in Calm     92% 0 in meteobridge W/m2
22:24 37 °F 34.9 °F 30.42 in Calm     92% 0 in meteobridge W/m2
22:29 37 °F 34.9 °F 30.42 in Calm     92% 0 in meteobridge W/m2
22:34 36.9 °F 34.7 °F 30.42 in Calm     92% 0 in meteobridge W/m2
22:39 36.7 °F 34.5 °F 30.41 in Calm     92% 0 in meteobridge W/m2
22:44 36.7 °F 34.9 °F 30.41 in Calm     93% 0 in meteobridge W/m2
22:49 36.7 °F 34.9 °F 30.41 in Calm     93% 0 in meteobridge W/m2
22:54 36.5 °F 34.7 °F 30.42 in Calm     93% 0 in meteobridge W/m2
22:59 36.3 °F 34.5 °F 30.42 in Calm     93% 0 in meteobridge W/m2
23:04 36.3 °F 34.5 °F 30.42 in Calm     93% 0 in meteobridge W/m2
23:09 36.1 °F 34 °F 30.42 in Calm     92% 0 in meteobridge W/m2
23:14 36 °F 33.8 °F 30.42 in Calm     92% 0 in meteobridge W/m2
23:19 35.8 °F 33.6 °F 30.42 in Calm     92% 0 in meteobridge W/m2
23:24 35.8 °F 34 °F 30.42 in Calm     93% 0 in meteobridge W/m2
23:29 35.4 °F 33.6 °F 30.42 in Calm     93% 0 in meteobridge W/m2
23:34 35.2 °F 33.4 °F 30.42 in Calm     93% 0 in meteobridge W/m2
23:39 35.1 °F 33.3 °F 30.42 in Calm     93% 0 in meteobridge W/m2
23:44 35.1 °F 33.3 °F 30.42 in Calm     93% 0 in meteobridge W/m2
23:49 35.1 °F 33.3 °F 30.42 in Calm     93% 0 in meteobridge W/m2
23:54 34.9 °F 33.3 °F 30.42 in Calm     94% 0 in meteobridge W/m2
23:59 34.9 °F 33.3 °F 30.42 in Calm     94% 0 in meteobridge W/m2
EllijayWeather
Compliments of Weather Underground - 2.5 mb